sensor_id;sensor_type;location;lat;lon;timestamp;temperature;humidity
22787;DHT22;63134;52.020;4.714;2023-03-01T00:02:37;2.30;91.70
22787;DHT22;63134;52.020;4.714;2023-03-01T00:05:22;2.40;91.80
22787;DHT22;63134;52.020;4.714;2023-03-01T00:08:08;2.30;92.10
22787;DHT22;63134;52.020;4.714;2023-03-01T00:11:08;2.30;92.10
22787;DHT22;63134;52.020;4.714;2023-03-01T00:13:57;2.30;91.90
22787;DHT22;63134;52.020;4.714;2023-03-01T00:16:50;2.20;92.20
22787;DHT22;63134;52.020;4.714;2023-03-01T00:19:35;2.20;92.40
22787;DHT22;63134;52.020;4.714;2023-03-01T00:22:23;2.20;92.40
22787;DHT22;63134;52.020;4.714;2023-03-01T00:25:09;2.30;92.50
22787;DHT22;63134;52.020;4.714;2023-03-01T00:27:54;2.30;92.50
22787;DHT22;63134;52.020;4.714;2023-03-01T00:30:42;2.30;92.90
22787;DHT22;63134;52.020;4.714;2023-03-01T00:33:27;2.30;92.50
22787;DHT22;63134;52.020;4.714;2023-03-01T00:36:14;2.30;92.50
22787;DHT22;63134;52.020;4.714;2023-03-01T00:39:00;2.20;92.50
22787;DHT22;63134;52.020;4.714;2023-03-01T00:41:46;2.20;92.50
22787;DHT22;63134;52.020;4.714;2023-03-01T00:44:31;2.20;92.60
22787;DHT22;63134;52.020;4.714;2023-03-01T00:47:17;2.10;92.50
22787;DHT22;63134;52.020;4.714;2023-03-01T00:50:02;2.10;92.60
22787;DHT22;63134;52.020;4.714;2023-03-01T00:52:53;2.10;92.60
22787;DHT22;63134;52.020;4.714;2023-03-01T00:55:39;2.20;92.70
22787;DHT22;63134;52.020;4.714;2023-03-01T00:58:25;2.10;92.70
22787;DHT22;63134;52.020;4.714;2023-03-01T01:01:19;2.00;92.60
22787;DHT22;63134;52.020;4.714;2023-03-01T01:04:08;2.00;92.40
22787;DHT22;63134;52.020;4.714;2023-03-01T01:06:57;1.90;92.70
22787;DHT22;63134;52.020;4.714;2023-03-01T01:09:46;1.90;92.40
22787;DHT22;63134;52.020;4.714;2023-03-01T01:12:34;1.90;92.60
22787;DHT22;63134;52.020;4.714;2023-03-01T01:15:23;2.60;95.70
22787;DHT22;63134;52.020;4.714;2023-03-01T01:18:09;1.80;92.30
22787;DHT22;63134;52.020;4.714;2023-03-01T01:20:54;1.80;92.70
22787;DHT22;63134;52.020;4.714;2023-03-01T01:23:42;1.70;92.50
22787;DHT22;63134;52.020;4.714;2023-03-01T01:26:32;2.60;99.90
22787;DHT22;63134;52.020;4.714;2023-03-01T01:29:18;1.80;92.70
22787;DHT22;63134;52.020;4.714;2023-03-01T01:32:04;2.60;94.40
22787;DHT22;63134;52.020;4.714;2023-03-01T01:37:36;1.80;92.70
22787;DHT22;63134;52.020;4.714;2023-03-01T01:40:22;1.80;92.80
22787;DHT22;63134;52.020;4.714;2023-03-01T01:43:22;1.80;92.80
22787;DHT22;63134;52.020;4.714;2023-03-01T01:46:26;1.80;93.10
22787;DHT22;63134;52.020;4.714;2023-03-01T01:52:35;1.60;95.70
22787;DHT22;63134;52.020;4.714;2023-03-01T01:55:25;1.70;92.80
22787;DHT22;63134;52.020;4.714;2023-03-01T01:58:19;2.70;98.60
22787;DHT22;63134;52.020;4.714;2023-03-01T02:01:07;1.70;92.80
22787;DHT22;63134;52.020;4.714;2023-03-01T02:03:52;1.70;93.20
22787;DHT22;63134;52.020;4.714;2023-03-01T02:06:46;1.70;92.90
22787;DHT22;63134;52.020;4.714;2023-03-01T02:09:38;1.70;93.20
22787;DHT22;63134;52.020;4.714;2023-03-01T02:12:29;1.70;93.30
22787;DHT22;63134;52.020;4.714;2023-03-01T02:15:14;1.60;95.30
22787;DHT22;63134;52.020;4.714;2023-03-01T02:18:04;1.60;92.90
22787;DHT22;63134;52.020;4.714;2023-03-01T02:21:11;1.60;92.90
22787;DHT22;63134;52.020;4.714;2023-03-01T02:24:03;1.50;92.90
22787;DHT22;63134;52.020;4.714;2023-03-01T02:26:56;1.60;93.30
22787;DHT22;63134;52.020;4.714;2023-03-01T02:29:41;1.60;93.20
22787;DHT22;63134;52.020;4.714;2023-03-01T02:32:29;1.60;93.20
22787;DHT22;63134;52.020;4.714;2023-03-01T02:35:16;1.60;93.20
22787;DHT22;63134;52.020;4.714;2023-03-01T02:38:06;1.60;93.30
22787;DHT22;63134;52.020;4.714;2023-03-01T02:40:54;1.60;93.40
22787;DHT22;63134;52.020;4.714;2023-03-01T02:43:41;1.60;93.30
22787;DHT22;63134;52.020;4.714;2023-03-01T02:46:27;1.50;93.20
22787;DHT22;63134;52.020;4.714;2023-03-01T02:49:28;1.50;93.30
22787;DHT22;63134;52.020;4.714;2023-03-01T02:55:24;1.50;93.20
22787;DHT22;63134;52.020;4.714;2023-03-01T02:58:19;1.50;93.30
22787;DHT22;63134;52.020;4.714;2023-03-01T03:01:08;1.50;93.30
22787;DHT22;63134;52.020;4.714;2023-03-01T03:03:55;1.50;93.30
22787;DHT22;63134;52.020;4.714;2023-03-01T03:06:48;1.50;93.30
22787;DHT22;63134;52.020;4.714;2023-03-01T03:09:34;1.50;93.40
22787;DHT22;63134;52.020;4.714;2023-03-01T03:12:19;1.50;93.30
22787;DHT22;63134;52.020;4.714;2023-03-01T03:15:09;1.40;93.40
22787;DHT22;63134;52.020;4.714;2023-03-01T03:17:58;1.40;93.40
22787;DHT22;63134;52.020;4.714;2023-03-01T03:20:44;1.40;93.40
22787;DHT22;63134;52.020;4.714;2023-03-01T03:23:30;1.40;93.40
22787;DHT22;63134;52.020;4.714;2023-03-01T03:26:16;1.40;93.30
22787;DHT22;63134;52.020;4.714;2023-03-01T03:29:02;1.40;93.40
22787;DHT22;63134;52.020;4.714;2023-03-01T03:31:49;1.40;93.40
22787;DHT22;63134;52.020;4.714;2023-03-01T03:34:35;1.40;93.40
22787;DHT22;63134;52.020;4.714;2023-03-01T03:37:21;1.40;93.40
22787;DHT22;63134;52.020;4.714;2023-03-01T03:40:25;1.30;93.30
22787;DHT22;63134;52.020;4.714;2023-03-01T03:46:00;1.30;93.40
22787;DHT22;63134;52.020;4.714;2023-03-01T03:48:45;2.00;93.60
22787;DHT22;63134;52.020;4.714;2023-03-01T03:51:31;1.30;93.50
22787;DHT22;63134;52.020;4.714;2023-03-01T03:54:16;1.30;93.50
22787;DHT22;63134;52.020;4.714;2023-03-01T03:57:05;1.30;93.30
22787;DHT22;63134;52.020;4.714;2023-03-01T03:59:51;1.20;93.20
22787;DHT22;63134;52.020;4.714;2023-03-01T04:02:37;1.20;93.50
22787;DHT22;63134;52.020;4.714;2023-03-01T04:05:25;1.20;93.30
22787;DHT22;63134;52.020;4.714;2023-03-01T04:08:11;1.20;93.30
22787;DHT22;63134;52.020;4.714;2023-03-01T04:11:01;1.10;93.20
22787;DHT22;63134;52.020;4.714;2023-03-01T04:14:06;1.10;93.40
22787;DHT22;63134;52.020;4.714;2023-03-01T04:16:52;1.20;93.60
22787;DHT22;63134;52.020;4.714;2023-03-01T04:19:37;1.20;93.50
22787;DHT22;63134;52.020;4.714;2023-03-01T04:22:23;1.20;93.60
22787;DHT22;63134;52.020;4.714;2023-03-01T04:25:14;1.20;93.60
22787;DHT22;63134;52.020;4.714;2023-03-01T04:28:00;1.20;93.70
22787;DHT22;63134;52.020;4.714;2023-03-01T04:30:45;1.10;93.70
22787;DHT22;63134;52.020;4.714;2023-03-01T04:33:31;1.10;93.70
22787;DHT22;63134;52.020;4.714;2023-03-01T04:36:19;1.10;93.60
22787;DHT22;63134;52.020;4.714;2023-03-01T04:39:04;1.10;93.50
22787;DHT22;63134;52.020;4.714;2023-03-01T04:41:59;1.00;93.40
22787;DHT22;63134;52.020;4.714;2023-03-01T04:44:45;1.00;93.40
22787;DHT22;63134;52.020;4.714;2023-03-01T04:47:31;0.90;93.30
22787;DHT22;63134;52.020;4.714;2023-03-01T04:50:17;0.90;93.30
22787;DHT22;63134;52.020;4.714;2023-03-01T04:53:05;0.80;93.40
22787;DHT22;63134;52.020;4.714;2023-03-01T04:55:51;0.90;93.50
22787;DHT22;63134;52.020;4.714;2023-03-01T04:58:36;0.80;93.50
22787;DHT22;63134;52.020;4.714;2023-03-01T05:01:22;0.80;93.50
22787;DHT22;63134;52.020;4.714;2023-03-01T05:04:10;0.80;93.50
22787;DHT22;63134;52.020;4.714;2023-03-01T05:06:59;0.80;93.60
22787;DHT22;63134;52.020;4.714;2023-03-01T05:09:46;0.80;93.60
22787;DHT22;63134;52.020;4.714;2023-03-01T05:12:31;0.80;93.60
22787;DHT22;63134;52.020;4.714;2023-03-01T05:15:17;0.80;93.60
22787;DHT22;63134;52.020;4.714;2023-03-01T05:18:05;0.80;93.70
22787;DHT22;63134;52.020;4.714;2023-03-01T05:21:11;0.80;93.80
22787;DHT22;63134;52.020;4.714;2023-03-01T05:23:57;0.80;93.60
22787;DHT22;63134;52.020;4.714;2023-03-01T05:26:42;0.80;93.70
22787;DHT22;63134;52.020;4.714;2023-03-01T05:29:30;0.80;93.70
22787;DHT22;63134;52.020;4.714;2023-03-01T05:32:16;0.80;93.80
22787;DHT22;63134;52.020;4.714;2023-03-01T05:35:01;0.80;93.80
22787;DHT22;63134;52.020;4.714;2023-03-01T05:37:48;0.80;94.10
22787;DHT22;63134;52.020;4.714;2023-03-01T05:40:35;0.90;94.00
22787;DHT22;63134;52.020;4.714;2023-03-01T05:43:20;0.90;94.10
22787;DHT22;63134;52.020;4.714;2023-03-01T05:46:06;0.90;94.00
22787;DHT22;63134;52.020;4.714;2023-03-01T05:48:51;0.90;94.00
22787;DHT22;63134;52.020;4.714;2023-03-01T05:51:37;0.90;93.90
22787;DHT22;63134;52.020;4.714;2023-03-01T05:54:22;0.80;93.50
22787;DHT22;63134;52.020;4.714;2023-03-01T05:57:10;0.90;93.90
22787;DHT22;63134;52.020;4.714;2023-03-01T05:59:55;0.80;93.80
22787;DHT22;63134;52.020;4.714;2023-03-01T06:02:41;0.80;93.80
22787;DHT22;63134;52.020;4.714;2023-03-01T06:05:27;0.80;93.70
22787;DHT22;63134;52.020;4.714;2023-03-01T06:08:13;0.70;93.40
22787;DHT22;63134;52.020;4.714;2023-03-01T06:11:00;0.70;93.40
22787;DHT22;63134;52.020;4.714;2023-03-01T06:13:46;1.70;99.90
22787;DHT22;63134;52.020;4.714;2023-03-01T06:16:31;0.60;93.00
22787;DHT22;63134;52.020;4.714;2023-03-01T06:19:17;0.60;93.00
22787;DHT22;63134;52.020;4.714;2023-03-01T06:22:02;0.60;93.40
22787;DHT22;63134;52.020;4.714;2023-03-01T06:24:48;1.00;96.30
22787;DHT22;63134;52.020;4.714;2023-03-01T06:27:33;0.60;93.30
22787;DHT22;63134;52.020;4.714;2023-03-01T06:30:20;0.60;93.60
22787;DHT22;63134;52.020;4.714;2023-03-01T06:33:06;0.70;93.70
22787;DHT22;63134;52.020;4.714;2023-03-01T06:35:54;0.70;93.70
22787;DHT22;63134;52.020;4.714;2023-03-01T06:38:42;0.70;93.80
22787;DHT22;63134;52.020;4.714;2023-03-01T06:41:30;0.70;93.80
22787;DHT22;63134;52.020;4.714;2023-03-01T06:44:16;0.80;93.80
22787;DHT22;63134;52.020;4.714;2023-03-01T06:47:01;0.80;93.90
22787;DHT22;63134;52.020;4.714;2023-03-01T06:49:47;1.00;94.00
22787;DHT22;63134;52.020;4.714;2023-03-01T06:52:32;1.20;94.10
22787;DHT22;63134;52.020;4.714;2023-03-01T06:55:18;1.40;94.10
22787;DHT22;63134;52.020;4.714;2023-03-01T06:58:03;1.40;93.90
22787;DHT22;63134;52.020;4.714;2023-03-01T07:00:49;1.30;93.80
22787;DHT22;63134;52.020;4.714;2023-03-01T07:03:34;1.30;93.90
22787;DHT22;63134;52.020;4.714;2023-03-01T07:06:21;1.30;94.00
22787;DHT22;63134;52.020;4.714;2023-03-01T07:09:06;1.20;94.00
22787;DHT22;63134;52.020;4.714;2023-03-01T07:11:53;1.30;94.10
22787;DHT22;63134;52.020;4.714;2023-03-01T07:14:43;1.30;94.10
22787;DHT22;63134;52.020;4.714;2023-03-01T07:17:29;1.40;94.20
22787;DHT22;63134;52.020;4.714;2023-03-01T07:20:14;1.30;94.20
22787;DHT22;63134;52.020;4.714;2023-03-01T07:23:00;1.40;94.20
22787;DHT22;63134;52.020;4.714;2023-03-01T07:25:52;1.40;94.30
22787;DHT22;63134;52.020;4.714;2023-03-01T07:28:38;1.50;94.30
22787;DHT22;63134;52.020;4.714;2023-03-01T07:31:24;1.40;94.30
22787;DHT22;63134;52.020;4.714;2023-03-01T07:34:15;1.60;94.40
22787;DHT22;63134;52.020;4.714;2023-03-01T07:37:00;1.60;94.30
22787;DHT22;63134;52.020;4.714;2023-03-01T07:39:46;1.60;94.20
22787;DHT22;63134;52.020;4.714;2023-03-01T07:42:32;1.60;94.20
22787;DHT22;63134;52.020;4.714;2023-03-01T07:45:20;1.70;94.30
22787;DHT22;63134;52.020;4.714;2023-03-01T07:48:08;1.70;94.40
22787;DHT22;63134;52.020;4.714;2023-03-01T07:50:53;1.80;94.40
22787;DHT22;63134;52.020;4.714;2023-03-01T07:53:39;1.90;94.30
22787;DHT22;63134;52.020;4.714;2023-03-01T07:56:25;1.90;94.20
22787;DHT22;63134;52.020;4.714;2023-03-01T07:59:10;2.00;94.20
22787;DHT22;63134;52.020;4.714;2023-03-01T08:01:56;2.00;94.30
22787;DHT22;63134;52.020;4.714;2023-03-01T08:04:42;2.10;94.10
22787;DHT22;63134;52.020;4.714;2023-03-01T08:07:28;2.10;94.10
22787;DHT22;63134;52.020;4.714;2023-03-01T08:10:13;2.20;94.20
22787;DHT22;63134;52.020;4.714;2023-03-01T08:12:59;2.30;94.10
22787;DHT22;63134;52.020;4.714;2023-03-01T08:15:44;2.30;94.10
22787;DHT22;63134;52.020;4.714;2023-03-01T08:18:30;2.40;94.10
22787;DHT22;63134;52.020;4.714;2023-03-01T08:21:18;2.50;94.10
22787;DHT22;63134;52.020;4.714;2023-03-01T08:24:05;2.50;93.90
22787;DHT22;63134;52.020;4.714;2023-03-01T08:26:53;2.60;93.80
22787;DHT22;63134;52.020;4.714;2023-03-01T08:29:39;2.70;93.70
22787;DHT22;63134;52.020;4.714;2023-03-01T08:32:27;2.80;93.50
22787;DHT22;63134;52.020;4.714;2023-03-01T08:35:13;3.90;93.70
22787;DHT22;63134;52.020;4.714;2023-03-01T08:37:59;2.80;93.30
22787;DHT22;63134;52.020;4.714;2023-03-01T08:40:52;2.90;93.20
22787;DHT22;63134;52.020;4.714;2023-03-01T08:43:38;3.00;93.40
22787;DHT22;63134;52.020;4.714;2023-03-01T08:46:27;3.10;93.10
22787;DHT22;63134;52.020;4.714;2023-03-01T08:49:19;3.20;92.80
22787;DHT22;63134;52.020;4.714;2023-03-01T08:52:07;3.30;93.00
22787;DHT22;63134;52.020;4.714;2023-03-01T08:54:53;3.30;92.60
22787;DHT22;63134;52.020;4.714;2023-03-01T08:57:38;3.30;92.70
22787;DHT22;63134;52.020;4.714;2023-03-01T09:00:24;3.30;92.60
22787;DHT22;63134;52.020;4.714;2023-03-01T09:03:10;3.40;92.80
22787;DHT22;63134;52.020;4.714;2023-03-01T09:06:00;3.50;92.60
22787;DHT22;63134;52.020;4.714;2023-03-01T09:08:48;3.60;92.60
22787;DHT22;63134;52.020;4.714;2023-03-01T09:11:33;3.60;92.60
22787;DHT22;63134;52.020;4.714;2023-03-01T09:14:19;3.70;92.50
22787;DHT22;63134;52.020;4.714;2023-03-01T09:17:05;3.80;92.60
22787;DHT22;63134;52.020;4.714;2023-03-01T09:19:50;3.90;92.40
22787;DHT22;63134;52.020;4.714;2023-03-01T09:22:35;3.90;92.30
22787;DHT22;63134;52.020;4.714;2023-03-01T09:25:21;3.90;92.30
22787;DHT22;63134;52.020;4.714;2023-03-01T09:28:07;4.00;92.40
22787;DHT22;63134;52.020;4.714;2023-03-01T09:31:00;4.20;92.30
22787;DHT22;63134;52.020;4.714;2023-03-01T09:33:47;4.20;92.20
22787;DHT22;63134;52.020;4.714;2023-03-01T09:36:34;4.20;92.00
22787;DHT22;63134;52.020;4.714;2023-03-01T09:39:21;4.30;92.10
22787;DHT22;63134;52.020;4.714;2023-03-01T09:42:12;4.40;92.10
22787;DHT22;63134;52.020;4.714;2023-03-01T09:44:58;4.40;92.20
22787;DHT22;63134;52.020;4.714;2023-03-01T09:47:45;4.60;91.80
22787;DHT22;63134;52.020;4.714;2023-03-01T09:50:35;4.60;91.60
22787;DHT22;63134;52.020;4.714;2023-03-01T09:53:31;4.70;91.50
22787;DHT22;63134;52.020;4.714;2023-03-01T09:56:24;4.70;91.10
22787;DHT22;63134;52.020;4.714;2023-03-01T09:59:23;4.70;91.10
22787;DHT22;63134;52.020;4.714;2023-03-01T10:02:56;4.80;91.00
22787;DHT22;63134;52.020;4.714;2023-03-01T10:06:04;4.90;90.90
22787;DHT22;63134;52.020;4.714;2023-03-01T10:08:57;4.90;90.70
22787;DHT22;63134;52.020;4.714;2023-03-01T10:11:52;4.90;90.50
22787;DHT22;63134;52.020;4.714;2023-03-01T10:14:40;5.00;90.80
22787;DHT22;63134;52.020;4.714;2023-03-01T10:17:43;5.00;90.10
22787;DHT22;63134;52.020;4.714;2023-03-01T10:20:51;5.10;88.70
22787;DHT22;63134;52.020;4.714;2023-03-01T10:23:39;5.10;88.00
22787;DHT22;63134;52.020;4.714;2023-03-01T10:29:42;5.20;86.20
22787;DHT22;63134;52.020;4.714;2023-03-01T10:32:31;5.30;86.30
22787;DHT22;63134;52.020;4.714;2023-03-01T10:35:26;5.30;85.30
22787;DHT22;63134;52.020;4.714;2023-03-01T10:38:13;5.40;84.10
22787;DHT22;63134;52.020;4.714;2023-03-01T10:41:04;5.60;83.50
22787;DHT22;63134;52.020;4.714;2023-03-01T10:43:56;5.70;83.20
22787;DHT22;63134;52.020;4.714;2023-03-01T10:46:42;5.80;82.70
22787;DHT22;63134;52.020;4.714;2023-03-01T10:49:28;5.90;83.10
22787;DHT22;63134;52.020;4.714;2023-03-01T10:52:22;6.10;81.20
22787;DHT22;63134;52.020;4.714;2023-03-01T10:55:47;6.20;80.50
22787;DHT22;63134;52.020;4.714;2023-03-01T10:58:37;6.30;79.80
22787;DHT22;63134;52.020;4.714;2023-03-01T11:01:34;6.40;78.80
22787;DHT22;63134;52.020;4.714;2023-03-01T11:04:27;6.60;77.50
22787;DHT22;63134;52.020;4.714;2023-03-01T11:07:13;6.70;77.20
22787;DHT22;63134;52.020;4.714;2023-03-01T11:09:59;6.90;75.60
22787;DHT22;63134;52.020;4.714;2023-03-01T11:12:44;7.10;73.50
22787;DHT22;63134;52.020;4.714;2023-03-01T11:15:30;7.30;73.00
22787;DHT22;63134;52.020;4.714;2023-03-01T11:18:20;7.40;71.70
22787;DHT22;63134;52.020;4.714;2023-03-01T11:21:07;7.50;68.60
22787;DHT22;63134;52.020;4.714;2023-03-01T11:23:54;7.70;68.60
22787;DHT22;63134;52.020;4.714;2023-03-01T11:26:42;7.90;66.10
22787;DHT22;63134;52.020;4.714;2023-03-01T11:29:44;8.30;64.30
22787;DHT22;63134;52.020;4.714;2023-03-01T11:32:48;8.80;64.00
22787;DHT22;63134;52.020;4.714;2023-03-01T11:35:37;9.30;63.20
22787;DHT22;63134;52.020;4.714;2023-03-01T11:38:30;10.10;60.60
22787;DHT22;63134;52.020;4.714;2023-03-01T11:41:20;10.50;58.60
22787;DHT22;63134;52.020;4.714;2023-03-01T11:44:28;11.10;57.00
22787;DHT22;63134;52.020;4.714;2023-03-01T11:50:41;12.60;52.40
22787;DHT22;63134;52.020;4.714;2023-03-01T11:53:36;13.40;48.10
22787;DHT22;63134;52.020;4.714;2023-03-01T11:56:42;14.00;46.00
22787;DHT22;63134;52.020;4.714;2023-03-01T11:59:46;14.70;43.50
22787;DHT22;63134;52.020;4.714;2023-03-01T12:12:26;17.40;37.00
22787;DHT22;63134;52.020;4.714;2023-03-01T12:22:08;18.90;32.40
22787;DHT22;63134;52.020;4.714;2023-03-01T12:31:33;20.60;28.30
22787;DHT22;63134;52.020;4.714;2023-03-01T12:37:53;21.40;27.30
22787;DHT22;63134;52.020;4.714;2023-03-01T12:41:14;21.90;27.10
22787;DHT22;63134;52.020;4.714;2023-03-01T12:53:48;23.60;24.40
22787;DHT22;63134;52.020;4.714;2023-03-01T12:56:35;24.00;24.30
22787;DHT22;63134;52.020;4.714;2023-03-01T12:59:42;24.60;23.90
22787;DHT22;63134;52.020;4.714;2023-03-01T13:02:52;24.90;22.90
22787;DHT22;63134;52.020;4.714;2023-03-01T13:08:49;25.80;22.80
22787;DHT22;63134;52.020;4.714;2023-03-01T13:11:35;26.30;22.60
22787;DHT22;63134;52.020;4.714;2023-03-01T13:17:30;26.30;21.80
22787;DHT22;63134;52.020;4.714;2023-03-01T13:20:19;26.30;20.90
22787;DHT22;63134;52.020;4.714;2023-03-01T13:35:00;27.40;20.60
22787;DHT22;63134;52.020;4.714;2023-03-01T13:37:48;27.70;20.40
22787;DHT22;63134;52.020;4.714;2023-03-01T13:43:28;28.00;19.90
22787;DHT22;63134;52.020;4.714;2023-03-01T13:46:23;27.90;19.90
22787;DHT22;63134;52.020;4.714;2023-03-01T13:49:14;27.90;19.60
22787;DHT22;63134;52.020;4.714;2023-03-01T13:52:17;28.30;19.70
22787;DHT22;63134;52.020;4.714;2023-03-01T13:55:23;28.40;19.10
22787;DHT22;63134;52.020;4.714;2023-03-01T13:58:21;28.40;19.30
22787;DHT22;63134;52.020;4.714;2023-03-01T14:01:18;28.20;19.20
22787;DHT22;63134;52.020;4.714;2023-03-01T14:04:35;28.50;19.60
22787;DHT22;63134;52.020;4.714;2023-03-01T14:07:25;28.70;19.40
22787;DHT22;63134;52.020;4.714;2023-03-01T14:10:12;28.80;19.30
22787;DHT22;63134;52.020;4.714;2023-03-01T14:13:08;29.00;18.80
22787;DHT22;63134;52.020;4.714;2023-03-01T14:19:18;29.00;19.20
22787;DHT22;63134;52.020;4.714;2023-03-01T14:22:19;29.40;19.00
22787;DHT22;63134;52.020;4.714;2023-03-01T14:25:20;29.30;18.30
22787;DHT22;63134;52.020;4.714;2023-03-01T14:28:23;29.40;18.50
22787;DHT22;63134;52.020;4.714;2023-03-01T14:31:31;29.50;18.30
22787;DHT22;63134;52.020;4.714;2023-03-01T14:34:30;29.50;18.50
22787;DHT22;63134;52.020;4.714;2023-03-01T14:37:24;29.40;18.30
22787;DHT22;63134;52.020;4.714;2023-03-01T14:43:18;29.20;18.70
22787;DHT22;63134;52.020;4.714;2023-03-01T14:46:05;29.30;18.40
22787;DHT22;63134;52.020;4.714;2023-03-01T14:49:27;29.20;18.50
22787;DHT22;63134;52.020;4.714;2023-03-01T14:52:24;29.30;18.50
22787;DHT22;63134;52.020;4.714;2023-03-01T14:55:47;29.40;18.40
22787;DHT22;63134;52.020;4.714;2023-03-01T14:58:32;29.60;18.30
22787;DHT22;63134;52.020;4.714;2023-03-01T15:01:19;30.00;18.30
22787;DHT22;63134;52.020;4.714;2023-03-01T15:04:05;30.00;18.00
22787;DHT22;63134;52.020;4.714;2023-03-01T15:06:57;30.00;18.10
22787;DHT22;63134;52.020;4.714;2023-03-01T15:09:50;30.10;17.70
22787;DHT22;63134;52.020;4.714;2023-03-01T15:12:38;30.60;17.60
22787;DHT22;63134;52.020;4.714;2023-03-01T15:15:32;31.10;17.60
22787;DHT22;63134;52.020;4.714;2023-03-01T15:18:26;31.50;17.30
22787;DHT22;63134;52.020;4.714;2023-03-01T15:21:24;31.50;16.90
22787;DHT22;63134;52.020;4.714;2023-03-01T15:27:12;31.40;17.40
22787;DHT22;63134;52.020;4.714;2023-03-01T15:30:00;31.40;16.80
22787;DHT22;63134;52.020;4.714;2023-03-01T15:33:19;31.40;16.90
22787;DHT22;63134;52.020;4.714;2023-03-01T15:42:47;31.00;16.80
22787;DHT22;63134;52.020;4.714;2023-03-01T15:45:33;30.60;17.10
22787;DHT22;63134;52.020;4.714;2023-03-01T15:48:19;30.40;17.10
22787;DHT22;63134;52.020;4.714;2023-03-01T15:51:12;30.10;17.50
22787;DHT22;63134;52.020;4.714;2023-03-01T15:54:10;29.90;17.70
22787;DHT22;63134;52.020;4.714;2023-03-01T15:56:58;29.70;17.80
22787;DHT22;63134;52.020;4.714;2023-03-01T15:59:44;29.70;17.90
22787;DHT22;63134;52.020;4.714;2023-03-01T16:02:29;29.60;17.70
22787;DHT22;63134;52.020;4.714;2023-03-01T16:05:19;29.30;17.90
22787;DHT22;63134;52.020;4.714;2023-03-01T16:08:05;29.10;17.70
22787;DHT22;63134;52.020;4.714;2023-03-01T16:10:51;28.50;18.20
22787;DHT22;63134;52.020;4.714;2023-03-01T16:13:38;28.00;18.50
22787;DHT22;63134;52.020;4.714;2023-03-01T16:16:24;27.40;19.00
22787;DHT22;63134;52.020;4.714;2023-03-01T16:19:10;26.70;19.50
22787;DHT22;63134;52.020;4.714;2023-03-01T16:21:55;25.90;19.90
22787;DHT22;63134;52.020;4.714;2023-03-01T16:24:41;25.20;20.60
22787;DHT22;63134;52.020;4.714;2023-03-01T16:27:26;24.60;21.30
22787;DHT22;63134;52.020;4.714;2023-03-01T16:32:59;23.70;22.30
22787;DHT22;63134;52.020;4.714;2023-03-01T16:35:44;23.30;23.20
22787;DHT22;63134;52.020;4.714;2023-03-01T16:38:31;22.90;23.60
22787;DHT22;63134;52.020;4.714;2023-03-01T16:41:20;22.40;24.00
22787;DHT22;63134;52.020;4.714;2023-03-01T16:44:06;22.00;24.50
22787;DHT22;63134;52.020;4.714;2023-03-01T16:46:51;21.50;24.90
22787;DHT22;63134;52.020;4.714;2023-03-01T16:49:37;21.20;25.40
22787;DHT22;63134;52.020;4.714;2023-03-01T16:52:23;20.90;25.30
22787;DHT22;63134;52.020;4.714;2023-03-01T16:55:08;20.40;25.90
22787;DHT22;63134;52.020;4.714;2023-03-01T16:57:55;19.30;26.50
22787;DHT22;63134;52.020;4.714;2023-03-01T17:00:40;17.40;28.40
22787;DHT22;63134;52.020;4.714;2023-03-01T17:03:27;16.00;30.50
22787;DHT22;63134;52.020;4.714;2023-03-01T17:06:19;14.80;32.90
22787;DHT22;63134;52.020;4.714;2023-03-01T17:09:05;13.90;35.30
22787;DHT22;63134;52.020;4.714;2023-03-01T17:11:51;13.60;36.80
22787;DHT22;63134;52.020;4.714;2023-03-01T17:14:37;13.20;37.30
22787;DHT22;63134;52.020;4.714;2023-03-01T17:17:23;12.50;38.50
22787;DHT22;63134;52.020;4.714;2023-03-01T17:20:09;11.80;40.00
22787;DHT22;63134;52.020;4.714;2023-03-01T17:22:55;11.10;41.70
22787;DHT22;63134;52.020;4.714;2023-03-01T17:25:45;10.50;43.50
22787;DHT22;63134;52.020;4.714;2023-03-01T17:28:32;10.00;45.60
22787;DHT22;63134;52.020;4.714;2023-03-01T17:31:18;9.60;47.00
22787;DHT22;63134;52.020;4.714;2023-03-01T17:34:04;9.20;48.50
22787;DHT22;63134;52.020;4.714;2023-03-01T17:36:50;8.80;49.90
22787;DHT22;63134;52.020;4.714;2023-03-01T17:39:36;8.50;51.20
22787;DHT22;63134;52.020;4.714;2023-03-01T17:42:22;8.20;52.50
22787;DHT22;63134;52.020;4.714;2023-03-01T17:45:08;7.90;53.30
22787;DHT22;63134;52.020;4.714;2023-03-01T17:47:53;7.70;54.10
22787;DHT22;63134;52.020;4.714;2023-03-01T17:50:39;7.50;54.90
22787;DHT22;63134;52.020;4.714;2023-03-01T17:53:28;7.20;55.80
22787;DHT22;63134;52.020;4.714;2023-03-01T17:56:14;7.10;56.80
22787;DHT22;63134;52.020;4.714;2023-03-01T17:59:03;6.90;57.20
22787;DHT22;63134;52.020;4.714;2023-03-01T18:01:49;6.70;57.50
22787;DHT22;63134;52.020;4.714;2023-03-01T18:04:35;6.60;58.20
22787;DHT22;63134;52.020;4.714;2023-03-01T18:07:20;6.50;58.60
22787;DHT22;63134;52.020;4.714;2023-03-01T18:10:06;6.40;58.80
22787;DHT22;63134;52.020;4.714;2023-03-01T18:12:55;6.20;59.20
22787;DHT22;63134;52.020;4.714;2023-03-01T18:15:40;6.20;59.60
22787;DHT22;63134;52.020;4.714;2023-03-01T18:18:27;6.00;59.80
22787;DHT22;63134;52.020;4.714;2023-03-01T18:21:14;5.90;60.00
22787;DHT22;63134;52.020;4.714;2023-03-01T18:23:59;5.80;60.50
22787;DHT22;63134;52.020;4.714;2023-03-01T18:26:45;5.70;60.80
22787;DHT22;63134;52.020;4.714;2023-03-01T18:29:31;5.70;61.80
22787;DHT22;63134;52.020;4.714;2023-03-01T18:32:18;5.60;62.50
22787;DHT22;63134;52.020;4.714;2023-03-01T18:35:04;5.50;63.40
22787;DHT22;63134;52.020;4.714;2023-03-01T18:37:50;5.40;63.70
22787;DHT22;63134;52.020;4.714;2023-03-01T18:40:38;5.40;64.50
22787;DHT22;63134;52.020;4.714;2023-03-01T18:43:25;5.30;64.90
22787;DHT22;63134;52.020;4.714;2023-03-01T18:46:13;5.20;65.30
22787;DHT22;63134;52.020;4.714;2023-03-01T18:48:59;5.20;66.00
22787;DHT22;63134;52.020;4.714;2023-03-01T18:51:44;5.10;66.00
22787;DHT22;63134;52.020;4.714;2023-03-01T18:54:31;5.10;66.40
22787;DHT22;63134;52.020;4.714;2023-03-01T18:57:20;5.00;67.10
22787;DHT22;63134;52.020;4.714;2023-03-01T19:00:11;5.00;67.40
22787;DHT22;63134;52.020;4.714;2023-03-01T19:02:58;4.90;67.70
22787;DHT22;63134;52.020;4.714;2023-03-01T19:05:43;4.90;68.10
22787;DHT22;63134;52.020;4.714;2023-03-01T19:08:30;4.90;68.50
22787;DHT22;63134;52.020;4.714;2023-03-01T19:11:16;4.80;68.50
22787;DHT22;63134;52.020;4.714;2023-03-01T19:14:03;4.80;68.50
22787;DHT22;63134;52.020;4.714;2023-03-01T19:16:49;4.80;68.50
22787;DHT22;63134;52.020;4.714;2023-03-01T19:19:34;4.80;68.40
22787;DHT22;63134;52.020;4.714;2023-03-01T19:22:20;4.80;68.20
22787;DHT22;63134;52.020;4.714;2023-03-01T19:25:06;4.80;67.90
22787;DHT22;63134;52.020;4.714;2023-03-01T19:27:51;4.70;67.70
22787;DHT22;63134;52.020;4.714;2023-03-01T19:30:40;4.60;67.60
22787;DHT22;63134;52.020;4.714;2023-03-01T19:33:27;4.60;68.00
22787;DHT22;63134;52.020;4.714;2023-03-01T19:36:13;4.60;68.30
22787;DHT22;63134;52.020;4.714;2023-03-01T19:39:00;4.60;68.80